Airport ID:KCCB
Update Time (UTC):26/09/2020 02:55
Wind Speed (Knots):6
Wind Direction (Magnetic):240
Temperature (°C):22.9
Dew Point (°C):14.9
Humidity (%):61.4
Altimeter (inHg):29.95
Density Altitude (Feet):02900
Visibility (Miles):10
Clouds (Hundreds of feet):OVC050
Present Weather:
METAR:METAR KCCB 260255Z AUTO 26006KT 10SM OVC050 23/15 A2995 RMK AO2

The data displayed is for advisory purposes only and is not to be used for flight planning or operations.